KLM1435 EHAM-LFLL
Flight info
| Callsign | KLM1435 |
|---|---|
| Flight time | 1h 13m |
| Altitude | 35000 |
| Route | WOODY N872 NIK M624 DIK N852 SUTAL DCT GTQ DCT POGOL DCT LASAT DCT MOROK Z24 BOLGI T14 MILPA |
| Aircraft | B738/M-SDE2E3FGHIRWXY/LB1 |
Departure
| Time | 2026-05-05 18:23 |
|---|---|
| Airport | Amsterdam Airport Schiphol (EHAM) |
Arrival
| Time | 2026-05-05 19:36 |
|---|---|
| Airport | Lyon Saint-Exupéry Airport (LFLL) |
| Time | Latitude | Longitude | Altitude | Speed | Heading |
|---|---|---|---|---|---|
| 2026-05-05 17:41 | 52.30379 | 4.76402 | -2 ft | 0 kts | 238° |
| 2026-05-05 17:43 | 52.30377 | 4.76398 | -2 ft | 0 kts | 238° |
| 2026-05-05 18:09 | 52.30380 | 4.76405 | -79 ft | 3 kts | 238° |
| 2026-05-05 18:09 | 52.30391 | 4.76432 | -2 ft | 3 kts | 228° |
| 2026-05-05 18:09 | 52.30404 | 4.76451 | -2 ft | 3 kts | 191° |
| 2026-05-05 18:10 | 52.30415 | 4.76452 | -2 ft | 0 kts | 158° |
| 2026-05-05 18:15 | 52.30414 | 4.76453 | -2 ft | 2 kts | 154° |
| 2026-05-05 18:15 | 52.30394 | 4.76476 | -2 ft | 4 kts | 146° |
| 2026-05-05 18:15 | 52.30369 | 4.76504 | -2 ft | 5 kts | 146° |
| 2026-05-05 18:15 | 52.30326 | 4.76534 | -2 ft | 9 kts | 174° |
| 2026-05-05 18:16 | 52.30269 | 4.76457 | -2 ft | 14 kts | 236° |
| 2026-05-05 18:16 | 52.30211 | 4.76323 | -2 ft | 14 kts | 240° |
| 2026-05-05 18:16 | 52.30162 | 4.76186 | -2 ft | 14 kts | 242° |
| 2026-05-05 18:16 | 52.30115 | 4.76053 | -2 ft | 14 kts | 238° |
| 2026-05-05 18:17 | 52.30059 | 4.75907 | -2 ft | 15 kts | 237° |
| 2026-05-05 18:17 | 52.30006 | 4.75768 | -2 ft | 15 kts | 238° |
| 2026-05-05 18:17 | 52.29947 | 4.75615 | -2 ft | 16 kts | 237° |
| 2026-05-05 18:17 | 52.29887 | 4.75460 | -2 ft | 16 kts | 238° |
| 2026-05-05 18:18 | 52.29834 | 4.75308 | -2 ft | 15 kts | 252° |
| 2026-05-05 18:18 | 52.29864 | 4.75155 | -2 ft | 14 kts | 310° |
| 2026-05-05 18:18 | 52.29929 | 4.75033 | -2 ft | 14 kts | 311° |
| 2026-05-05 18:18 | 52.29992 | 4.74917 | -2 ft | 13 kts | 312° |
| 2026-05-05 18:19 | 52.30053 | 4.74805 | -1 ft | 14 kts | 311° |
| 2026-05-05 18:19 | 52.30116 | 4.74688 | 6 ft | 14 kts | 312° |
| 2026-05-05 18:19 | 52.30178 | 4.74575 | 9 ft | 13 kts | 311° |
| 2026-05-05 18:19 | 52.30234 | 4.74471 | 9 ft | 12 kts | 310° |
| 2026-05-05 18:20 | 52.30287 | 4.74371 | 8 ft | 12 kts | 311° |
| 2026-05-05 18:20 | 52.30355 | 4.74239 | -2 ft | 11 kts | 306° |
| 2026-05-05 18:20 | 52.30365 | 4.74122 | -2 ft | 11 kts | 251° |
| 2026-05-05 18:20 | 52.30321 | 4.74035 | -2 ft | 7 kts | 216° |
| 2026-05-05 18:21 | 52.30314 | 4.74027 | -2 ft | 0 kts | 217° |
| 2026-05-05 18:21 | 52.30313 | 4.74025 | -2 ft | 2 kts | 217° |
| 2026-05-05 18:21 | 52.30288 | 4.73995 | -2 ft | 6 kts | 217° |
| 2026-05-05 18:21 | 52.30248 | 4.73947 | -2 ft | 10 kts | 216° |
| 2026-05-05 18:22 | 52.30188 | 4.73843 | -3 ft | 15 kts | 255° |
| 2026-05-05 18:22 | 52.30242 | 4.73742 | -4 ft | 0 kts | 0° |
| 2026-05-05 18:22 | 52.30555 | 4.73771 | -4 ft | 90 kts | 4° |
| 2026-05-05 18:23 | 52.31441 | 4.73854 | 51 ft | 160 kts | 5° |
| 2026-05-05 18:23 | 52.32564 | 4.73999 | 1110 ft | 153 kts | 7° |
| 2026-05-05 18:23 | 52.33558 | 4.74128 | 2292 ft | 149 kts | 2° |
| 2026-05-05 18:23 | 52.34718 | 4.74172 | 2595 ft | 185 kts | 15° |
| 2026-05-05 18:24 | 52.35935 | 4.75136 | 3054 ft | 201 kts | 29° |
| 2026-05-05 18:24 | 52.37031 | 4.76707 | 3398 ft | 224 kts | 56° |
| 2026-05-05 18:24 | 52.37472 | 4.79212 | 4006 ft | 236 kts | 89° |
| 2026-05-05 18:24 | 52.37107 | 4.81819 | 4879 ft | 236 kts | 107° |
| 2026-05-05 18:25 | 52.36274 | 4.84227 | 5278 ft | 261 kts | 134° |
| 2026-05-05 18:25 | 52.35261 | 4.85420 | 5398 ft | 283 kts | 157° |
| 2026-05-05 18:25 | 52.32577 | 4.85845 | 6316 ft | 291 kts | 194° |
| 2026-05-05 18:25 | 52.30668 | 4.85277 | 7648 ft | 277 kts | 189° |
| 2026-05-05 18:26 | 52.28735 | 4.84991 | 8573 ft | 281 kts | 185° |
| 2026-05-05 18:26 | 52.26772 | 4.84858 | 9444 ft | 285 kts | 183° |
| 2026-05-05 18:26 | 52.24774 | 4.84778 | 10244 ft | 290 kts | 182° |
| 2026-05-05 18:26 | 52.22680 | 4.84719 | 10540 ft | 314 kts | 182° |
| 2026-05-05 18:27 | 52.20398 | 4.84665 | 10733 ft | 339 kts | 182° |
| 2026-05-05 18:27 | 52.17954 | 4.84615 | 10917 ft | 362 kts | 182° |
| 2026-05-05 18:27 | 52.15377 | 4.84565 | 11326 ft | 376 kts | 182° |
| 2026-05-05 18:27 | 52.12711 | 4.84514 | 12011 ft | 381 kts | 182° |
| 2026-05-05 18:28 | 52.07423 | 4.84411 | 12925 ft | 386 kts | 181° |
| 2026-05-05 18:28 | 52.04708 | 4.84355 | 12952 ft | 388 kts | 181° |
| 2026-05-05 18:28 | 52.02017 | 4.84075 | 12942 ft | 387 kts | 193° |
| 2026-05-05 18:29 | 51.99532 | 4.82483 | 12976 ft | 384 kts | 208° |
| 2026-05-05 18:29 | 51.97153 | 4.80491 | 12956 ft | 385 kts | 207° |
| 2026-05-05 18:29 | 51.94773 | 4.78578 | 12952 ft | 385 kts | 206° |
| 2026-05-05 18:29 | 51.92354 | 4.76675 | 12942 ft | 386 kts | 206° |
| 2026-05-05 18:30 | 51.89933 | 4.74784 | 12944 ft | 386 kts | 206° |
| 2026-05-05 18:30 | 51.87505 | 4.72888 | 12955 ft | 387 kts | 206° |
| 2026-05-05 18:30 | 51.85078 | 4.70993 | 12936 ft | 387 kts | 206° |
| 2026-05-05 18:30 | 51.82654 | 4.69102 | 12951 ft | 387 kts | 206° |
| 2026-05-05 18:31 | 51.80249 | 4.67225 | 12954 ft | 387 kts | 206° |
| 2026-05-05 18:31 | 51.77789 | 4.65308 | 12954 ft | 388 kts | 206° |
| 2026-05-05 18:31 | 51.75336 | 4.63399 | 13443 ft | 393 kts | 206° |
| 2026-05-05 18:31 | 51.72894 | 4.61500 | 14140 ft | 395 kts | 206° |
| 2026-05-05 18:32 | 51.70411 | 4.59572 | 14840 ft | 397 kts | 206° |
| 2026-05-05 18:32 | 51.67911 | 4.57633 | 15475 ft | 402 kts | 206° |
| 2026-05-05 18:32 | 51.65367 | 4.55661 | 16047 ft | 406 kts | 206° |
| 2026-05-05 18:32 | 51.62801 | 4.53677 | 16724 ft | 409 kts | 206° |
| 2026-05-05 18:33 | 51.60224 | 4.51685 | 17367 ft | 411 kts | 206° |
| 2026-05-05 18:33 | 51.57648 | 4.49697 | 18016 ft | 414 kts | 207° |
| 2026-05-05 18:33 | 51.55030 | 4.47679 | 18575 ft | 417 kts | 206° |
| 2026-05-05 18:33 | 51.52386 | 4.45644 | 19110 ft | 420 kts | 206° |
| 2026-05-05 18:34 | 51.49788 | 4.43647 | 19654 ft | 422 kts | 206° |
| 2026-05-05 18:34 | 51.47131 | 4.41607 | 20220 ft | 424 kts | 207° |
| 2026-05-05 18:34 | 51.44430 | 4.39533 | 20742 ft | 427 kts | 206° |
| 2026-05-05 18:34 | 51.41771 | 4.37497 | 21217 ft | 430 kts | 206° |
| 2026-05-05 18:35 | 51.39065 | 4.35438 | 21704 ft | 432 kts | 206° |
| 2026-05-05 18:35 | 51.36324 | 4.33389 | 22176 ft | 435 kts | 206° |
| 2026-05-05 18:35 | 51.33564 | 4.31336 | 22645 ft | 438 kts | 206° |
| 2026-05-05 18:35 | 51.30789 | 4.29269 | 23099 ft | 441 kts | 207° |
| 2026-05-05 18:36 | 51.28005 | 4.27157 | 23548 ft | 444 kts | 207° |
| 2026-05-05 18:36 | 51.25212 | 4.25021 | 23919 ft | 446 kts | 206° |
| 2026-05-05 18:36 | 51.22412 | 4.22892 | 24385 ft | 446 kts | 205° |
| 2026-05-05 18:36 | 51.19444 | 4.21462 | 24783 ft | 449 kts | 187° |
| 2026-05-05 18:37 | 51.16317 | 4.21647 | 25184 ft | 453 kts | 170° |
| 2026-05-05 18:37 | 51.13308 | 4.23190 | 25532 ft | 457 kts | 155° |
| 2026-05-05 18:37 | 51.10681 | 4.25965 | 25844 ft | 461 kts | 141° |
| 2026-05-05 18:37 | 51.08241 | 4.29304 | 26202 ft | 463 kts | 140° |
| 2026-05-05 18:38 | 51.05812 | 4.32694 | 26512 ft | 465 kts | 140° |
| 2026-05-05 18:38 | 51.03368 | 4.36081 | 26821 ft | 467 kts | 140° |
| 2026-05-05 18:38 | 51.01735 | 4.38318 | 27039 ft | 468 kts | 140° |
| 2026-05-05 18:38 | 50.99253 | 4.41681 | 27359 ft | 470 kts | 141° |
| 2026-05-05 18:39 | 50.96746 | 4.45048 | 27662 ft | 472 kts | 141° |
| 2026-05-05 18:39 | 50.94234 | 4.48409 | 28020 ft | 472 kts | 141° |
| 2026-05-05 18:39 | 50.91734 | 4.51749 | 28501 ft | 470 kts | 141° |
| 2026-05-05 18:39 | 50.89308 | 4.55085 | 29020 ft | 467 kts | 138° |
| 2026-05-05 18:40 | 50.86977 | 4.58671 | 29502 ft | 465 kts | 136° |
| 2026-05-05 18:40 | 50.84698 | 4.62326 | 29917 ft | 465 kts | 136° |
| 2026-05-05 18:40 | 50.82455 | 4.65944 | 30254 ft | 465 kts | 136° |
| 2026-05-05 18:40 | 50.80178 | 4.69582 | 30573 ft | 464 kts | 136° |
| 2026-05-05 18:41 | 50.77898 | 4.73181 | 30917 ft | 463 kts | 137° |
| 2026-05-05 18:41 | 50.75622 | 4.76746 | 31139 ft | 465 kts | 138° |
| 2026-05-05 18:41 | 50.73303 | 4.80361 | 31364 ft | 467 kts | 138° |
| 2026-05-05 18:41 | 50.70994 | 4.83951 | 31702 ft | 466 kts | 138° |
| 2026-05-05 18:42 | 50.68682 | 4.87544 | 32080 ft | 464 kts | 138° |
| 2026-05-05 18:42 | 50.66382 | 4.91114 | 32420 ft | 464 kts | 138° |
| 2026-05-05 18:42 | 50.64104 | 4.94650 | 32699 ft | 464 kts | 138° |
| 2026-05-05 18:42 | 50.61803 | 4.98221 | 32976 ft | 465 kts | 138° |
| 2026-05-05 18:43 | 50.59519 | 5.01764 | 33294 ft | 464 kts | 138° |
| 2026-05-05 18:43 | 50.57197 | 5.05362 | 33625 ft | 463 kts | 138° |
| 2026-05-05 18:43 | 50.54905 | 5.08911 | 33917 ft | 463 kts | 138° |
| 2026-05-05 18:43 | 50.52602 | 5.12469 | 34191 ft | 462 kts | 139° |
| 2026-05-05 18:44 | 50.50317 | 5.15993 | 34541 ft | 459 kts | 139° |
| 2026-05-05 18:44 | 50.48041 | 5.19502 | 34810 ft | 458 kts | 139° |
| 2026-05-05 18:44 | 50.45755 | 5.23019 | 34912 ft | 461 kts | 139° |
| 2026-05-05 18:44 | 50.43453 | 5.26553 | 34913 ft | 463 kts | 139° |
| 2026-05-05 18:45 | 50.38863 | 5.33592 | 34917 ft | 459 kts | 139° |
| 2026-05-05 18:45 | 50.34310 | 5.40555 | 34922 ft | 456 kts | 139° |
| 2026-05-05 18:46 | 50.29787 | 5.47448 | 34913 ft | 455 kts | 139° |
| 2026-05-05 18:46 | 50.25244 | 5.54354 | 34912 ft | 454 kts | 140° |
| 2026-05-05 18:47 | 50.20708 | 5.61230 | 34919 ft | 454 kts | 140° |
| 2026-05-05 18:47 | 50.16169 | 5.68092 | 34923 ft | 454 kts | 140° |
| 2026-05-05 18:48 | 50.11647 | 5.74912 | 34921 ft | 454 kts | 140° |
| 2026-05-05 18:48 | 50.07094 | 5.81757 | 34923 ft | 455 kts | 140° |
| 2026-05-05 18:49 | 50.02536 | 5.88583 | 34912 ft | 455 kts | 140° |
| 2026-05-05 18:49 | 49.97991 | 5.95376 | 34907 ft | 455 kts | 140° |
| 2026-05-05 18:50 | 49.93410 | 6.02190 | 34917 ft | 455 kts | 141° |
| 2026-05-05 18:50 | 49.88828 | 6.08967 | 34924 ft | 455 kts | 141° |
| 2026-05-05 18:51 | 49.83797 | 6.14713 | 34929 ft | 445 kts | 158° |
| 2026-05-05 18:51 | 49.78138 | 6.18513 | 34925 ft | 442 kts | 160° |
| 2026-05-05 18:52 | 49.72518 | 6.22234 | 34937 ft | 442 kts | 160° |
| 2026-05-05 18:52 | 49.66874 | 6.26049 | 34937 ft | 441 kts | 160° |
| 2026-05-05 18:53 | 49.61274 | 6.29807 | 34917 ft | 440 kts | 161° |
| 2026-05-05 18:53 | 49.55626 | 6.33447 | 34895 ft | 440 kts | 161° |
| 2026-05-05 18:54 | 49.49965 | 6.37090 | 34910 ft | 440 kts | 161° |
| 2026-05-05 18:54 | 49.44312 | 6.40696 | 34905 ft | 439 kts | 165° |
| 2026-05-05 18:55 | 49.38415 | 6.42431 | 34915 ft | 433 kts | 176° |
| 2026-05-05 18:55 | 49.32458 | 6.43622 | 34908 ft | 433 kts | 176° |
| 2026-05-05 18:56 | 49.26478 | 6.44866 | 34911 ft | 434 kts | 176° |
| 2026-05-05 18:56 | 49.20487 | 6.46154 | 34922 ft | 434 kts | 175° |
| 2026-05-05 18:57 | 49.14490 | 6.47455 | 34929 ft | 434 kts | 175° |
| 2026-05-05 18:57 | 49.08505 | 6.48754 | 34939 ft | 433 kts | 176° |
| 2026-05-05 18:58 | 49.02585 | 6.50033 | 34930 ft | 431 kts | 176° |
| 2026-05-05 18:58 | 48.96635 | 6.51314 | 34930 ft | 430 kts | 176° |
| 2026-05-05 18:59 | 48.90711 | 6.52587 | 34931 ft | 429 kts | 176° |
| 2026-05-05 18:59 | 48.84809 | 6.53852 | 34931 ft | 427 kts | 176° |
| 2026-05-05 19:00 | 48.78977 | 6.55099 | 34932 ft | 425 kts | 176° |
| 2026-05-05 19:00 | 48.73123 | 6.56347 | 34918 ft | 424 kts | 176° |
| 2026-05-05 19:01 | 48.67280 | 6.57590 | 34927 ft | 423 kts | 176° |
| 2026-05-05 19:01 | 48.61443 | 6.58829 | 34928 ft | 423 kts | 176° |
| 2026-05-05 19:02 | 48.55636 | 6.60058 | 34933 ft | 423 kts | 176° |
| 2026-05-05 19:02 | 48.49795 | 6.61292 | 34928 ft | 424 kts | 176° |
| 2026-05-05 19:03 | 48.43933 | 6.62528 | 34932 ft | 424 kts | 176° |
| 2026-05-05 19:03 | 48.38076 | 6.63760 | 34929 ft | 425 kts | 176° |
| 2026-05-05 19:04 | 48.32254 | 6.64982 | 34937 ft | 425 kts | 176° |
| 2026-05-05 19:04 | 48.26382 | 6.66212 | 34940 ft | 425 kts | 176° |
| 2026-05-05 19:05 | 48.20519 | 6.67437 | 34936 ft | 424 kts | 176° |
| 2026-05-05 19:05 | 48.14668 | 6.68467 | 34930 ft | 420 kts | 183° |
| 2026-05-05 19:06 | 48.08871 | 6.68253 | 34940 ft | 418 kts | 185° |
| 2026-05-05 19:06 | 48.03057 | 6.67961 | 34942 ft | 417 kts | 185° |
| 2026-05-05 19:07 | 47.97344 | 6.67043 | 34928 ft | 417 kts | 179° |
| 2026-05-05 19:07 | 47.94486 | 6.68001 | 34944 ft | 427 kts | 162° |
| 2026-05-05 19:07 | 47.91902 | 6.70212 | 34969 ft | 439 kts | 148° |
| 2026-05-05 19:08 | 47.87239 | 6.76134 | 34749 ft | 434 kts | 143° |
| 2026-05-05 19:08 | 47.85032 | 6.79153 | 34543 ft | 428 kts | 143° |
| 2026-05-05 19:08 | 47.82844 | 6.82166 | 33851 ft | 429 kts | 143° |
| 2026-05-05 19:09 | 47.80636 | 6.85205 | 32907 ft | 435 kts | 143° |
| 2026-05-05 19:09 | 47.78383 | 6.88251 | 31992 ft | 437 kts | 148° |
| 2026-05-05 19:09 | 47.75850 | 6.90303 | 31786 ft | 412 kts | 168° |
| 2026-05-05 19:09 | 47.72984 | 6.90789 | 31288 ft | 413 kts | 189° |
| 2026-05-05 19:10 | 47.70188 | 6.89849 | 30842 ft | 420 kts | 199° |
| 2026-05-05 19:10 | 47.67409 | 6.88378 | 30315 ft | 427 kts | 201° |
| 2026-05-05 19:10 | 47.64592 | 6.86863 | 29755 ft | 429 kts | 200° |
| 2026-05-05 19:10 | 47.61770 | 6.85372 | 29165 ft | 431 kts | 200° |
| 2026-05-05 19:11 | 47.58935 | 6.83899 | 28580 ft | 432 kts | 200° |
| 2026-05-05 19:11 | 47.56122 | 6.82457 | 28022 ft | 433 kts | 200° |
| 2026-05-05 19:11 | 47.53267 | 6.81005 | 27463 ft | 434 kts | 200° |
| 2026-05-05 19:11 | 47.50406 | 6.79556 | 26934 ft | 434 kts | 199° |
| 2026-05-05 19:12 | 47.47542 | 6.78108 | 26424 ft | 435 kts | 199° |
| 2026-05-05 19:12 | 47.44668 | 6.76656 | 25929 ft | 439 kts | 199° |
| 2026-05-05 19:12 | 47.41759 | 6.75187 | 25437 ft | 442 kts | 199° |
| 2026-05-05 19:12 | 47.38855 | 6.73723 | 24948 ft | 440 kts | 199° |
| 2026-05-05 19:13 | 47.35967 | 6.72268 | 24449 ft | 437 kts | 199° |
| 2026-05-05 19:13 | 47.33096 | 6.70822 | 24002 ft | 435 kts | 199° |
| 2026-05-05 19:13 | 47.30272 | 6.69402 | 23544 ft | 433 kts | 199° |
| 2026-05-05 19:13 | 47.27416 | 6.67967 | 23072 ft | 431 kts | 199° |
| 2026-05-05 19:14 | 47.24566 | 6.66527 | 22998 ft | 432 kts | 200° |
| 2026-05-05 19:14 | 47.21838 | 6.64686 | 22960 ft | 430 kts | 209° |
| 2026-05-05 19:14 | 47.19317 | 6.62314 | 22965 ft | 431 kts | 216° |
| 2026-05-05 19:14 | 47.17054 | 6.59446 | 22975 ft | 429 kts | 221° |
| 2026-05-05 19:15 | 47.14880 | 6.56516 | 22962 ft | 431 kts | 221° |
| 2026-05-05 19:15 | 47.12652 | 6.53529 | 22957 ft | 432 kts | 221° |
| 2026-05-05 19:15 | 47.10414 | 6.50553 | 22955 ft | 433 kts | 221° |
| 2026-05-05 19:15 | 47.08173 | 6.47593 | 22950 ft | 433 kts | 220° |
| 2026-05-05 19:16 | 47.05934 | 6.44646 | 22954 ft | 432 kts | 220° |
| 2026-05-05 19:16 | 47.03690 | 6.41701 | 22966 ft | 432 kts | 220° |
| 2026-05-05 19:16 | 47.01482 | 6.38807 | 22957 ft | 426 kts | 220° |
| 2026-05-05 19:16 | 46.99309 | 6.35959 | 22942 ft | 413 kts | 220° |
| 2026-05-05 19:17 | 46.97169 | 6.33159 | 22956 ft | 410 kts | 220° |
| 2026-05-05 19:17 | 46.95038 | 6.30377 | 22973 ft | 411 kts | 220° |
| 2026-05-05 19:17 | 46.92899 | 6.27590 | 22972 ft | 412 kts | 220° |
| 2026-05-05 19:17 | 46.90753 | 6.24798 | 22972 ft | 412 kts | 220° |
| 2026-05-05 19:18 | 46.88606 | 6.22006 | 22968 ft | 412 kts | 220° |
| 2026-05-05 19:18 | 46.86463 | 6.19221 | 22965 ft | 413 kts | 220° |
| 2026-05-05 19:18 | 46.84314 | 6.16431 | 22966 ft | 412 kts | 220° |
| 2026-05-05 19:18 | 46.82085 | 6.13810 | 22960 ft | 408 kts | 212° |
| 2026-05-05 19:19 | 46.79654 | 6.11853 | 22899 ft | 396 kts | 204° |
| 2026-05-05 19:19 | 46.77098 | 6.10466 | 22320 ft | 391 kts | 198° |
| 2026-05-05 19:19 | 46.74491 | 6.09241 | 21414 ft | 394 kts | 198° |
| 2026-05-05 19:19 | 46.71869 | 6.08003 | 20595 ft | 395 kts | 198° |
| 2026-05-05 19:20 | 46.69262 | 6.06761 | 19953 ft | 392 kts | 198° |
| 2026-05-05 19:20 | 46.66682 | 6.05522 | 19367 ft | 388 kts | 198° |
| 2026-05-05 19:20 | 46.64125 | 6.04288 | 18759 ft | 386 kts | 198° |
| 2026-05-05 19:20 | 46.61603 | 6.03069 | 18115 ft | 383 kts | 198° |
| 2026-05-05 19:21 | 46.59083 | 6.01849 | 17438 ft | 380 kts | 198° |
| 2026-05-05 19:21 | 46.56587 | 6.00582 | 16818 ft | 377 kts | 202° |
| 2026-05-05 19:21 | 46.54307 | 5.98720 | 16262 ft | 375 kts | 215° |
| 2026-05-05 19:21 | 46.52953 | 5.97116 | 16143 ft | 379 kts | 220° |
| 2026-05-05 19:22 | 46.50581 | 5.93402 | 16011 ft | 378 kts | 229° |
| 2026-05-05 19:22 | 46.48906 | 5.90468 | 15977 ft | 377 kts | 229° |
| 2026-05-05 19:22 | 46.47233 | 5.87543 | 15977 ft | 377 kts | 229° |
| 2026-05-05 19:22 | 46.46096 | 5.85563 | 15970 ft | 377 kts | 228° |
| 2026-05-05 19:23 | 46.44411 | 5.82647 | 15966 ft | 376 kts | 227° |
| 2026-05-05 19:23 | 46.42645 | 5.79846 | 15975 ft | 376 kts | 225° |
| 2026-05-05 19:23 | 46.40814 | 5.77130 | 15966 ft | 375 kts | 223° |
| 2026-05-05 19:23 | 46.39001 | 5.74488 | 15954 ft | 365 kts | 223° |
| 2026-05-05 19:24 | 46.37240 | 5.71925 | 15960 ft | 361 kts | 223° |
| 2026-05-05 19:24 | 46.35474 | 5.69347 | 15955 ft | 360 kts | 223° |
| 2026-05-05 19:24 | 46.33730 | 5.66788 | 15680 ft | 354 kts | 224° |
| 2026-05-05 19:24 | 46.32006 | 5.64250 | 15161 ft | 353 kts | 224° |
| 2026-05-05 19:25 | 46.30282 | 5.61707 | 14529 ft | 354 kts | 224° |
| 2026-05-05 19:25 | 46.28559 | 5.59162 | 13930 ft | 354 kts | 224° |
| 2026-05-05 19:25 | 46.26835 | 5.56617 | 13365 ft | 353 kts | 224° |
| 2026-05-05 19:25 | 46.25127 | 5.54095 | 12839 ft | 349 kts | 224° |
| 2026-05-05 19:26 | 46.23435 | 5.51598 | 12287 ft | 346 kts | 224° |
| 2026-05-05 19:26 | 46.21770 | 5.49144 | 11957 ft | 337 kts | 223° |
| 2026-05-05 19:26 | 46.20132 | 5.46733 | 11444 ft | 333 kts | 224° |
| 2026-05-05 19:26 | 46.18579 | 5.44446 | 11268 ft | 312 kts | 224° |
| 2026-05-05 19:27 | 46.17108 | 5.42279 | 11128 ft | 292 kts | 223° |
| 2026-05-05 19:27 | 46.15727 | 5.40248 | 10891 ft | 278 kts | 223° |
| 2026-05-05 19:27 | 46.14394 | 5.38292 | 10569 ft | 270 kts | 223° |
| 2026-05-05 19:27 | 46.13067 | 5.36350 | 10020 ft | 273 kts | 223° |
| 2026-05-05 19:28 | 46.11731 | 5.34395 | 9409 ft | 274 kts | 223° |
| 2026-05-05 19:28 | 46.10388 | 5.32431 | 8754 ft | 275 kts | 223° |
| 2026-05-05 19:28 | 46.09041 | 5.30462 | 8214 ft | 273 kts | 223° |
| 2026-05-05 19:28 | 46.07731 | 5.28546 | 8057 ft | 269 kts | 223° |
| 2026-05-05 19:29 | 46.06402 | 5.26605 | 7971 ft | 272 kts | 223° |
| 2026-05-05 19:29 | 46.05106 | 5.24712 | 7827 ft | 264 kts | 223° |
| 2026-05-05 19:29 | 46.03832 | 5.22851 | 7368 ft | 260 kts | 223° |
| 2026-05-05 19:29 | 46.02533 | 5.21032 | 6754 ft | 262 kts | 221° |
| 2026-05-05 19:30 | 46.01243 | 5.19155 | 6307 ft | 260 kts | 223° |
| 2026-05-05 19:30 | 46.00026 | 5.17345 | 6203 ft | 243 kts | 223° |
| 2026-05-05 19:30 | 45.98875 | 5.15644 | 6038 ft | 231 kts | 222° |
| 2026-05-05 19:30 | 45.97775 | 5.14035 | 5775 ft | 225 kts | 223° |
| 2026-05-05 19:31 | 45.96680 | 5.12441 | 5504 ft | 223 kts | 223° |
| 2026-05-05 19:31 | 45.95567 | 5.10826 | 5038 ft | 230 kts | 223° |
| 2026-05-05 19:31 | 45.94430 | 5.09176 | 4540 ft | 233 kts | 223° |
| 2026-05-05 19:31 | 45.93248 | 5.07576 | 4041 ft | 234 kts | 212° |
| 2026-05-05 19:32 | 45.91733 | 5.06938 | 3610 ft | 229 kts | 177° |
| 2026-05-05 19:32 | 45.90163 | 5.07167 | 3268 ft | 223 kts | 174° |
| 2026-05-05 19:32 | 45.88668 | 5.07335 | 3059 ft | 203 kts | 175° |
| 2026-05-05 19:32 | 45.87340 | 5.07486 | 3044 ft | 181 kts | 175° |
| 2026-05-05 19:33 | 45.86113 | 5.07633 | 3068 ft | 178 kts | 174° |
| 2026-05-05 19:33 | 45.84869 | 5.07786 | 3039 ft | 182 kts | 175° |
| 2026-05-05 19:33 | 45.83594 | 5.07944 | 2827 ft | 184 kts | 175° |
| 2026-05-05 19:33 | 45.82326 | 5.08099 | 2571 ft | 178 kts | 175° |
| 2026-05-05 19:34 | 45.81143 | 5.08244 | 2344 ft | 163 kts | 175° |
| 2026-05-05 19:34 | 45.80061 | 5.08380 | 2126 ft | 149 kts | 172° |
| 2026-05-05 19:34 | 45.79050 | 5.08503 | 1980 ft | 143 kts | 175° |
| 2026-05-05 19:35 | 45.77019 | 5.08751 | 1532 ft | 150 kts | 174° |
| 2026-05-05 19:35 | 45.75973 | 5.08879 | 1313 ft | 151 kts | 174° |
| 2026-05-05 19:35 | 45.74923 | 5.09041 | 1101 ft | 151 kts | 175° |
| 2026-05-05 19:35 | 45.73853 | 5.09169 | 893 ft | 154 kts | 175° |
| 2026-05-05 19:36 | 45.72844 | 5.09278 | 804 ft | 139 kts | 173° |
| 2026-05-05 19:36 | 45.72051 | 5.09367 | 818 ft | 86 kts | 175° |
| 2026-05-05 19:36 | 45.71757 | 5.09327 | 820 ft | 17 kts | 200° |
| 2026-05-05 19:36 | 45.71680 | 5.09280 | 816 ft | 8 kts | 206° |
| 2026-05-05 19:37 | 45.71639 | 5.09222 | 814 ft | 10 kts | 252° |
| 2026-05-05 19:37 | 45.71633 | 5.09121 | 813 ft | 5 kts | 264° |
| 2026-05-05 19:37 | 45.71632 | 5.09105 | 813 ft | 2 kts | 264° |
| 2026-05-05 19:37 | 45.71628 | 5.09045 | 813 ft | 10 kts | 264° |
| 2026-05-05 19:38 | 45.71621 | 5.08946 | 813 ft | 10 kts | 264° |
| 2026-05-05 19:38 | 45.71614 | 5.08848 | 812 ft | 10 kts | 264° |
| 2026-05-05 19:38 | 45.71608 | 5.08756 | 808 ft | 11 kts | 265° |
| 2026-05-05 19:38 | 45.71602 | 5.08649 | 805 ft | 11 kts | 264° |
| 2026-05-05 19:39 | 45.71588 | 5.08549 | 803 ft | 10 kts | 240° |
| 2026-05-05 19:39 | 45.71526 | 5.08515 | 802 ft | 10 kts | 178° |
| 2026-05-05 19:39 | 45.71458 | 5.08519 | 805 ft | 10 kts | 188° |
| 2026-05-05 19:39 | 45.71415 | 5.08455 | 806 ft | 10 kts | 263° |
| 2026-05-05 19:40 | 45.71406 | 5.08354 | 803 ft | 10 kts | 262° |
| 2026-05-05 19:40 | 45.71408 | 5.08254 | 801 ft | 10 kts | 284° |
| 2026-05-05 19:40 | 45.71435 | 5.08148 | 801 ft | 12 kts | 287° |
| 2026-05-05 19:40 | 45.71456 | 5.08041 | 800 ft | 8 kts | 290° |
| 2026-05-05 19:41 | 45.71484 | 5.08007 | 799 ft | 1 kts | 349° |
| 2026-05-05 19:41 | 45.71488 | 5.08004 | 798 ft | 1 kts | 334° |
| 2026-05-05 19:41 | 45.71499 | 5.07950 | 796 ft | 7 kts | 273° |
| 2026-05-05 19:41 | 45.71516 | 5.07914 | 796 ft | 3 kts | 326° |
| 2026-05-05 19:42 | 45.71534 | 5.07898 | 796 ft | 3 kts | 331° |
| 2026-05-05 19:42 | 45.71547 | 5.07888 | 796 ft | 1 kts | 332° |
| 2026-05-05 19:42 | 45.71548 | 5.07888 | 796 ft | 0 kts | 332° |